createdAt,value
2023-11-13T00:01:49.849Z,11.41
2023-11-13T00:04:16.503Z,11.35
2023-11-13T00:06:43.178Z,11.54
2023-11-13T00:09:09.762Z,11.32
2023-11-13T00:11:36.356Z,11.26
2023-11-13T00:14:02.973Z,11.46
2023-11-13T00:16:29.718Z,11.46
2023-11-13T00:18:56.487Z,11.77
2023-11-13T00:21:23.296Z,11.99
2023-11-13T00:23:49.912Z,12.08
2023-11-13T00:26:16.503Z,12.32
2023-11-13T00:28:43.098Z,12.55
2023-11-13T00:31:09.862Z,12.60
2023-11-13T00:33:36.543Z,12.78
2023-11-13T00:36:03.162Z,12.84
2023-11-13T00:38:29.796Z,12.91
2023-11-13T00:40:57.513Z,12.96
2023-11-13T00:43:25.139Z,13.08
2023-11-13T00:45:51.776Z,12.96
2023-11-13T00:48:18.573Z,12.83
2023-11-13T00:50:45.150Z,13.01
2023-11-13T00:53:11.755Z,13.06
2023-11-13T00:55:38.378Z,13.05
2023-11-13T00:58:05.034Z,12.78
2023-11-13T01:00:31.645Z,12.55
2023-11-13T01:02:58.371Z,12.46
2023-11-13T01:05:25.162Z,12.40
2023-11-13T01:07:51.776Z,12.34
2023-11-13T01:10:18.426Z,12.71
2023-11-13T01:12:45.043Z,12.38
2023-11-13T01:15:11.679Z,12.61
2023-11-13T01:17:38.342Z,12.17
2023-11-13T01:20:04.985Z,12.47
2023-11-13T01:22:31.668Z,12.38
2023-11-13T01:24:58.362Z,12.28
2023-11-13T01:27:25.037Z,12.48
2023-11-13T01:29:51.644Z,12.50
2023-11-13T01:32:18.228Z,12.53
2023-11-13T01:34:44.821Z,12.44
2023-11-13T01:37:11.490Z,12.53
2023-11-13T01:39:38.106Z,12.30
2023-11-13T01:42:04.741Z,12.28
2023-11-13T01:44:31.414Z,12.45
2023-11-13T01:46:58.089Z,12.38
2023-11-13T01:49:24.742Z,12.25
2023-11-13T01:51:51.482Z,12.20
2023-11-13T01:54:18.149Z,12.30
2023-11-13T01:56:44.778Z,12.46
2023-11-13T01:59:11.400Z,12.54
2023-11-13T02:01:38.095Z,12.65
2023-11-13T02:04:04.860Z,12.81
2023-11-13T02:06:31.569Z,12.87
2023-11-13T02:08:58.225Z,12.61
2023-11-13T02:11:24.822Z,12.59
2023-11-13T02:13:51.488Z,12.71
2023-11-13T02:16:18.146Z,12.83
2023-11-13T02:18:44.827Z,12.90
2023-11-13T02:21:11.459Z,13.01
2023-11-13T02:23:38.073Z,12.94
2023-11-13T02:26:04.722Z,12.95
2023-11-13T02:28:31.425Z,12.98
2023-11-13T02:30:58.002Z,12.72
2023-11-13T02:33:24.627Z,12.65
2023-11-13T02:35:51.241Z,12.49
2023-11-13T02:38:17.835Z,12.10
2023-11-13T02:40:44.679Z,12.21
2023-11-13T02:43:11.404Z,12.06
2023-11-13T02:45:38.037Z,12.21
2023-11-13T02:48:05.729Z,12.19
2023-11-13T02:50:32.386Z,12.07
2023-11-13T02:52:59.353Z,12.14
2023-11-13T02:55:26.922Z,12.15
2023-11-13T02:57:53.719Z,12.13
2023-11-13T03:00:20.375Z,12.08
2023-11-13T03:02:47.037Z,11.71
2023-11-13T03:05:13.686Z,11.58
2023-11-13T03:07:40.270Z,11.46
2023-11-13T03:10:06.936Z,11.48
2023-11-13T03:12:33.575Z,11.32
2023-11-13T03:15:00.330Z,11.31
2023-11-13T03:17:27.032Z,11.21
2023-11-13T03:19:53.609Z,11.13
2023-11-13T03:22:20.306Z,11.07
2023-11-13T03:24:46.946Z,10.80
2023-11-13T03:27:13.532Z,10.72
2023-11-13T03:29:40.191Z,10.67
2023-11-13T03:32:07.028Z,10.39
2023-11-13T03:34:33.638Z,10.37
2023-11-13T03:37:00.292Z,10.46
2023-11-13T03:39:26.970Z,10.39
2023-11-13T03:41:56.005Z,10.54
2023-11-13T03:44:22.642Z,10.42
2023-11-13T03:46:49.239Z,10.48
2023-11-13T03:49:15.856Z,10.35
2023-11-13T03:51:42.533Z,10.61
2023-11-13T03:54:09.103Z,10.67
2023-11-13T03:56:35.681Z,10.59
2023-11-13T03:59:02.351Z,10.58
2023-11-13T04:01:29.050Z,10.63
2023-11-13T04:03:55.730Z,10.69
2023-11-13T04:06:22.389Z,10.68
2023-11-13T04:08:49.095Z,10.96
2023-11-13T04:11:15.677Z,10.96
2023-11-13T04:13:42.248Z,10.68
2023-11-13T04:16:09.313Z,10.68
2023-11-13T04:18:36.082Z,10.87
2023-11-13T04:21:02.700Z,10.78
2023-11-13T04:23:29.323Z,11.10
2023-11-13T04:25:55.997Z,10.84
2023-11-13T04:28:22.641Z,10.45
2023-11-13T04:30:49.312Z,10.83
2023-11-13T04:33:16.009Z,10.53
2023-11-13T04:35:42.833Z,11.08
2023-11-13T04:38:09.441Z,10.81
2023-11-13T04:40:36.016Z,10.79
2023-11-13T04:43:04.016Z,10.62
2023-11-13T04:45:32.121Z,10.43
2023-11-13T04:47:58.787Z,10.79
2023-11-13T04:50:25.417Z,10.81
2023-11-13T04:52:52.014Z,10.74
2023-11-13T04:55:18.693Z,10.94
2023-11-13T04:57:45.368Z,10.79
2023-11-13T05:00:12.036Z,10.94
2023-11-13T05:02:38.687Z,11.11
2023-11-13T05:05:05.437Z,11.02
2023-11-13T05:07:32.098Z,11.02
2023-11-13T05:09:58.903Z,10.98
2023-11-13T05:12:28.493Z,10.80
2023-11-13T05:14:55.230Z,10.73
2023-11-13T05:17:21.859Z,10.96
2023-11-13T05:19:48.534Z,10.94
2023-11-13T05:22:15.487Z,10.98
2023-11-13T05:24:42.107Z,10.79
2023-11-13T05:27:08.667Z,11.09
2023-11-13T05:29:35.295Z,11.29
2023-11-13T05:32:02.202Z,11.21
2023-11-13T05:34:28.843Z,11.70
2023-11-13T05:36:55.502Z,11.64
2023-11-13T05:39:22.100Z,11.37
2023-11-13T05:41:48.695Z,11.42
2023-11-13T05:44:15.497Z,11.32
2023-11-13T05:46:42.219Z,11.11
2023-11-13T05:49:08.895Z,11.15
2023-11-13T05:51:35.522Z,11.41
2023-11-13T05:54:02.135Z,11.64
2023-11-13T05:56:28.783Z,11.61
2023-11-13T05:58:55.373Z,11.33
2023-11-13T06:01:22.050Z,11.47
2023-11-13T06:03:48.846Z,11.55
2023-11-13T06:06:16.300Z,11.37
2023-11-13T06:08:43.103Z,11.39
2023-11-13T06:11:12.827Z,11.34
2023-11-13T06:13:39.563Z,11.46
2023-11-13T06:16:06.255Z,11.34
2023-11-13T06:18:32.944Z,11.56
2023-11-13T06:20:59.611Z,11.50
2023-11-13T06:23:26.268Z,11.98
2023-11-13T06:25:52.948Z,12.12
2023-11-13T06:28:19.686Z,12.39
2023-11-13T06:30:46.336Z,12.29
2023-11-13T06:33:13.044Z,12.22
2023-11-13T06:35:39.782Z,12.64
2023-11-13T06:38:06.360Z,12.64
2023-11-13T06:40:33.000Z,12.61
2023-11-13T06:42:59.618Z,12.72
2023-11-13T06:45:26.198Z,12.90
2023-11-13T06:47:53.096Z,12.71
2023-11-13T06:50:19.797Z,12.81
2023-11-13T06:52:46.460Z,12.87
2023-11-13T06:55:13.352Z,12.63
2023-11-13T06:57:40.068Z,12.80
2023-11-13T07:00:06.750Z,12.89
2023-11-13T07:02:33.467Z,13.06
2023-11-13T07:05:00.128Z,13.11
2023-11-13T07:07:26.818Z,13.22
2023-11-13T07:09:53.613Z,13.31
2023-11-13T07:12:20.359Z,13.25
2023-11-13T07:14:46.976Z,13.20
2023-11-13T07:17:13.635Z,13.33
2023-11-13T07:19:40.278Z,13.31
2023-11-13T07:22:06.982Z,13.38
2023-11-13T07:24:33.704Z,13.16
2023-11-13T07:27:00.315Z,13.28
2023-11-13T07:29:27.030Z,13.19
2023-11-13T07:31:53.752Z,13.37
2023-11-13T07:34:20.511Z,13.42
2023-11-13T07:36:48.532Z,13.26
2023-11-13T07:39:17.351Z,13.03
2023-11-13T07:41:44.037Z,12.86
2023-11-13T07:44:10.648Z,12.97
2023-11-13T07:46:37.375Z,12.58
2023-11-13T07:49:04.094Z,12.74
2023-11-13T07:51:30.738Z,12.79
2023-11-13T07:53:57.400Z,12.98
2023-11-13T07:56:24.008Z,13.14
2023-11-13T07:58:50.600Z,13.20
2023-11-13T08:01:17.263Z,13.26
2023-11-13T08:03:43.967Z,13.34
2023-11-13T08:06:10.731Z,13.43
2023-11-13T08:08:37.358Z,13.46
2023-11-13T08:13:30.810Z,13.20
2023-11-13T08:15:57.495Z,12.92
2023-11-13T08:18:24.522Z,12.64
2023-11-13T08:20:51.384Z,12.64
2023-11-13T08:23:17.996Z,12.86
2023-11-13T08:25:44.710Z,12.70
2023-11-13T08:28:11.499Z,12.63
2023-11-13T08:30:38.164Z,12.77
2023-11-13T08:33:05.055Z,12.69
2023-11-13T08:35:31.679Z,12.99
2023-11-13T08:37:58.280Z,13.17
2023-11-13T08:40:25.324Z,12.91
2023-11-13T08:42:52.063Z,13.01
2023-11-13T08:45:19.005Z,13.28
2023-11-13T08:47:45.786Z,13.32
2023-11-13T08:50:12.424Z,13.02
2023-11-13T08:52:39.137Z,13.29
2023-11-13T08:55:05.803Z,13.43
2023-11-13T08:57:32.466Z,13.64
2023-11-13T09:00:02.083Z,13.62
2023-11-13T09:02:28.997Z,13.64
2023-11-13T09:04:55.769Z,13.66
2023-11-13T09:07:22.614Z,13.63
2023-11-13T09:09:49.291Z,13.64
2023-11-13T09:12:18.444Z,13.58
2023-11-13T09:14:45.206Z,13.47
2023-11-13T09:17:11.782Z,13.68
2023-11-13T09:19:38.633Z,13.52
2023-11-13T09:22:09.022Z,13.26
2023-11-13T09:24:35.860Z,13.61
2023-11-13T09:27:02.548Z,13.85
2023-11-13T09:29:29.182Z,13.73
2023-11-13T09:31:55.786Z,13.89
2023-11-13T09:34:22.408Z,13.96
2023-11-13T09:36:49.039Z,13.87
2023-11-13T09:39:15.623Z,14.00
2023-11-13T09:41:42.380Z,13.77
2023-11-13T09:44:08.984Z,13.86
2023-11-13T09:46:35.645Z,13.92
2023-11-13T09:49:02.308Z,13.97
2023-11-13T09:51:30.851Z,13.97
2023-11-13T09:53:57.896Z,13.95
2023-11-13T09:56:26.461Z,13.74
2023-11-13T09:58:53.072Z,13.88
2023-11-13T10:01:19.726Z,13.93
2023-11-13T10:03:46.619Z,14.12
2023-11-13T10:06:13.181Z,13.92
2023-11-13T10:08:39.779Z,14.07
2023-11-13T10:11:06.702Z,13.93
2023-11-13T10:13:33.350Z,13.86
2023-11-13T10:16:00.270Z,13.58
2023-11-13T10:18:28.979Z,13.36
2023-11-13T10:20:57.213Z,13.56
2023-11-13T10:23:23.893Z,13.50
2023-11-13T10:25:50.512Z,13.53
2023-11-13T10:28:17.112Z,13.83
2023-11-13T10:30:43.786Z,13.42
2023-11-13T10:33:10.534Z,13.81
2023-11-13T10:35:37.170Z,13.81
2023-11-13T10:38:03.777Z,13.93
2023-11-13T10:40:30.400Z,13.87
2023-11-13T10:42:57.069Z,13.50
2023-11-13T10:45:23.662Z,13.41
2023-11-13T10:47:50.748Z,13.66
2023-11-13T10:50:17.329Z,13.96
2023-11-13T10:52:43.932Z,14.08
2023-11-13T10:55:10.583Z,14.09
2023-11-13T10:57:37.525Z,14.24
2023-11-13T11:00:04.192Z,14.24
2023-11-13T11:02:32.092Z,14.19
2023-11-13T11:04:59.849Z,13.98
2023-11-13T11:07:26.530Z,13.76
2023-11-13T11:09:53.241Z,13.96
2023-11-13T11:12:19.867Z,13.74
2023-11-13T11:14:46.523Z,13.93
2023-11-13T11:17:13.526Z,13.77
2023-11-13T11:19:40.179Z,13.33
2023-11-13T11:22:06.839Z,13.36
2023-11-13T11:24:33.550Z,13.64
2023-11-13T11:27:00.290Z,13.44
2023-11-13T11:29:26.969Z,13.66
2023-11-13T11:31:53.580Z,13.84
2023-11-13T11:34:20.471Z,13.82
2023-11-13T11:36:47.369Z,13.80
2023-11-13T11:39:13.973Z,13.97
2023-11-13T11:41:40.537Z,13.99
2023-11-13T11:44:07.180Z,13.89
2023-11-13T11:46:34.147Z,13.88
2023-11-13T11:49:00.878Z,13.21
2023-11-13T11:51:27.508Z,13.49
2023-11-13T11:53:54.068Z,13.60
2023-11-13T11:56:20.687Z,13.53
2023-11-13T11:58:47.296Z,13.33
2023-11-13T12:01:13.948Z,13.26
2023-11-13T12:03:40.748Z,13.10
2023-11-13T12:06:07.339Z,13.12
2023-11-13T12:08:34.015Z,13.08
2023-11-13T12:11:00.633Z,13.42
2023-11-13T12:13:28.855Z,13.69
2023-11-13T12:15:55.625Z,13.94
2023-11-13T12:18:22.266Z,13.74
2023-11-13T12:20:48.847Z,13.74
2023-11-13T12:23:15.415Z,13.72
2023-11-13T12:25:42.054Z,13.47
2023-11-13T12:28:08.705Z,13.74
2023-11-13T12:30:35.323Z,13.96
2023-11-13T12:33:01.947Z,14.18
2023-11-13T12:35:28.632Z,13.97
2023-11-13T12:37:55.424Z,13.42
2023-11-13T12:40:23.085Z,13.59
2023-11-13T12:42:50.076Z,12.85
2023-11-13T12:45:16.940Z,12.81
2023-11-13T12:47:43.713Z,12.49
2023-11-13T12:50:10.293Z,12.86
2023-11-13T12:52:39.034Z,12.97
2023-11-13T12:55:06.248Z,12.94
2023-11-13T12:57:33.081Z,12.87
2023-11-13T12:59:59.684Z,13.00
2023-11-13T13:02:26.698Z,12.74
2023-11-13T13:04:59.021Z,12.96
2023-11-13T13:07:27.182Z,13.06
2023-11-13T13:09:53.756Z,13.34
2023-11-13T13:12:20.874Z,13.18
2023-11-13T13:14:47.701Z,13.28
2023-11-13T13:17:14.384Z,12.92
2023-11-13T13:19:41.092Z,12.85
2023-11-13T13:22:10.397Z,12.86
2023-11-13T13:24:37.290Z,13.10
2023-11-13T13:27:03.944Z,13.17
2023-11-13T13:29:30.555Z,12.93
2023-11-13T13:31:57.314Z,13.08
2023-11-13T13:34:23.933Z,13.18
2023-11-13T13:36:50.563Z,12.69
2023-11-13T13:39:17.214Z,12.92
2023-11-13T13:41:43.823Z,12.68
2023-11-13T13:44:10.939Z,12.90
2023-11-13T13:46:37.556Z,12.87
2023-11-13T13:49:04.163Z,13.06
2023-11-13T13:51:30.786Z,13.04
2023-11-13T13:53:57.382Z,12.78
2023-11-13T13:56:24.142Z,12.63
2023-11-13T13:58:50.806Z,12.93
2023-11-13T14:01:17.429Z,13.40
2023-11-13T14:03:44.087Z,13.20
2023-11-13T14:06:10.701Z,13.21
2023-11-13T14:08:37.272Z,13.08
2023-11-13T14:11:03.956Z,13.10
2023-11-13T14:13:30.564Z,13.35
2023-11-13T14:16:07.618Z,13.47
2023-11-13T14:18:35.888Z,13.57
2023-11-13T14:21:03.048Z,13.30
2023-11-13T14:23:29.814Z,13.02
2023-11-13T14:25:56.599Z,12.98
2023-11-13T14:28:23.672Z,12.84
2023-11-13T14:30:50.528Z,12.56
2023-11-13T14:33:17.545Z,12.47
2023-11-13T14:35:44.158Z,12.70
2023-11-13T14:38:10.811Z,12.32
2023-11-13T14:40:37.442Z,12.34
2023-11-13T14:43:04.066Z,12.56
2023-11-13T14:45:30.720Z,12.28
2023-11-13T14:47:57.395Z,12.76
2023-11-13T14:50:24.695Z,12.38
2023-11-13T14:52:51.696Z,12.73
2023-11-13T14:55:18.388Z,12.78
2023-11-13T14:57:45.745Z,12.56
2023-11-13T15:00:12.396Z,12.71
2023-11-13T15:02:39.330Z,12.55
2023-11-13T15:05:06.932Z,12.79
2023-11-13T15:07:33.674Z,12.72
2023-11-13T15:10:00.399Z,12.96
2023-11-13T15:12:29.566Z,12.81
2023-11-13T15:14:57.620Z,12.82
2023-11-13T15:17:24.241Z,13.11
2023-11-13T15:19:51.005Z,13.21
2023-11-13T15:22:17.839Z,13.34
2023-11-13T15:24:44.927Z,13.30
2023-11-13T15:27:11.617Z,13.41
2023-11-13T15:29:38.328Z,13.06
2023-11-13T15:32:04.916Z,13.01
2023-11-13T15:34:31.567Z,13.30
2023-11-13T15:36:58.199Z,13.13
2023-11-13T15:39:24.803Z,13.42
2023-11-13T15:41:51.403Z,13.05
2023-11-13T15:44:18.000Z,12.95
2023-11-13T15:46:45.120Z,12.89
2023-11-13T15:49:11.816Z,12.77
2023-11-13T15:51:38.407Z,12.40
2023-11-13T15:54:05.189Z,12.75
2023-11-13T15:56:31.838Z,12.90
2023-11-13T15:58:58.420Z,13.24
2023-11-13T16:01:25.035Z,13.10
2023-11-13T16:03:51.816Z,13.24
2023-11-13T16:06:18.462Z,13.38
2023-11-13T16:08:45.092Z,13.35
2023-11-13T16:11:11.723Z,13.10
2023-11-13T16:13:38.331Z,13.29
2023-11-13T16:16:04.975Z,12.88
2023-11-13T16:18:31.630Z,12.65
2023-11-13T16:20:58.292Z,12.70
2023-11-13T16:23:24.896Z,12.96
2023-11-13T16:25:51.489Z,13.01
2023-11-13T16:28:18.145Z,13.00
2023-11-13T16:30:44.815Z,13.09
2023-11-13T16:33:11.540Z,13.18
2023-11-13T16:35:38.152Z,13.24
2023-11-13T16:38:04.736Z,13.52
2023-11-13T16:40:31.527Z,13.68
2023-11-13T16:42:58.188Z,13.72
2023-11-13T16:45:24.819Z,14.02
2023-11-13T16:47:51.449Z,14.04
2023-11-13T16:50:18.067Z,14.01
2023-11-13T16:52:44.685Z,14.12
2023-11-13T16:55:11.941Z,13.88
2023-11-13T16:57:40.012Z,14.05
2023-11-13T17:00:07.928Z,14.03
2023-11-13T17:02:34.733Z,14.13
2023-11-13T17:05:01.519Z,14.33
2023-11-13T17:07:28.182Z,13.67
2023-11-13T17:09:54.774Z,14.06
2023-11-13T17:12:21.422Z,14.05
2023-11-13T17:14:47.981Z,13.95
2023-11-13T17:17:17.631Z,13.99
2023-11-13T17:19:45.677Z,13.82
2023-11-13T17:22:13.037Z,13.60
2023-11-13T17:24:39.665Z,13.84
2023-11-13T17:27:06.243Z,14.20
2023-11-13T17:29:32.826Z,13.70
2023-11-13T17:31:59.468Z,13.82
2023-11-13T17:34:26.169Z,13.82
2023-11-13T17:36:52.796Z,13.70
2023-11-13T17:39:19.459Z,13.80
2023-11-13T17:41:46.283Z,13.87
2023-11-13T17:44:12.922Z,14.20
2023-11-13T17:46:39.584Z,14.49
2023-11-13T17:49:06.224Z,14.64
2023-11-13T17:51:32.872Z,14.71
2023-11-13T17:53:59.463Z,14.70
2023-11-13T17:56:26.115Z,14.80
2023-11-13T17:58:52.794Z,14.90
2023-11-13T18:01:19.552Z,14.79
2023-11-13T18:03:48.622Z,14.66
2023-11-13T18:06:15.270Z,14.72
2023-11-13T18:08:41.878Z,14.62
2023-11-13T18:11:08.519Z,14.15
2023-11-13T18:13:35.346Z,14.27
2023-11-13T18:16:02.155Z,14.55
2023-11-13T18:18:28.751Z,14.67
2023-11-13T18:20:55.540Z,14.75
2023-11-13T18:23:22.145Z,14.77
2023-11-13T18:25:50.185Z,14.80
2023-11-13T18:28:17.996Z,14.82
2023-11-13T18:30:44.845Z,14.68
2023-11-13T18:33:11.579Z,14.64
2023-11-13T18:35:38.202Z,14.74
2023-11-13T18:38:04.857Z,14.82
2023-11-13T18:40:31.477Z,14.54
2023-11-13T18:42:58.126Z,14.58
2023-11-13T18:45:24.837Z,14.32
2023-11-13T18:47:51.547Z,14.22
2023-11-13T18:50:18.141Z,14.10
2023-11-13T18:52:46.227Z,14.37
2023-11-13T18:55:12.898Z,14.42
2023-11-13T18:57:39.539Z,14.60
2023-11-13T19:00:06.194Z,14.69
2023-11-13T19:02:32.934Z,14.78
2023-11-13T19:04:59.692Z,14.77
2023-11-13T19:07:26.384Z,14.59
2023-11-13T19:09:53.069Z,14.70
2023-11-13T19:12:19.700Z,14.94
2023-11-13T19:14:46.277Z,15.06
2023-11-13T19:17:12.863Z,15.03
2023-11-13T19:19:39.585Z,15.10
2023-11-13T19:22:06.196Z,15.03
2023-11-13T19:24:32.923Z,14.99
2023-11-13T19:26:59.568Z,14.96
2023-11-13T19:29:26.176Z,14.93
2023-11-13T19:31:52.958Z,14.97
2023-11-13T19:34:19.975Z,14.55
2023-11-13T19:36:46.712Z,14.31
2023-11-13T19:39:13.402Z,14.38
2023-11-13T19:41:40.274Z,14.13
2023-11-13T19:44:06.900Z,14.21
2023-11-13T19:46:33.543Z,14.23
2023-11-13T19:49:00.212Z,14.08
2023-11-13T19:51:26.802Z,13.92
2023-11-13T19:53:53.639Z,14.01
2023-11-13T19:56:20.228Z,14.02
2023-11-13T19:58:46.922Z,14.06
2023-11-13T20:01:13.540Z,14.35
2023-11-13T20:03:40.320Z,14.60
2023-11-13T20:06:07.000Z,14.41
2023-11-13T20:08:33.678Z,14.54
2023-11-13T20:11:00.336Z,14.66
2023-11-13T20:13:26.999Z,14.39
2023-11-13T20:15:53.706Z,14.26
2023-11-13T20:18:29.818Z,14.45
2023-11-13T20:21:03.086Z,14.69
2023-11-13T20:23:30.080Z,14.48
2023-11-13T20:25:56.786Z,14.27
2023-11-13T20:28:23.424Z,14.37
2023-11-13T20:30:50.178Z,14.32
2023-11-13T20:33:18.269Z,14.21
2023-11-13T20:35:45.027Z,14.17
2023-11-13T20:38:11.671Z,14.17
2023-11-13T20:40:38.327Z,14.34
2023-11-13T20:43:04.946Z,14.41
2023-11-13T20:45:31.583Z,14.39
2023-11-13T20:47:58.271Z,14.18
2023-11-13T20:50:24.975Z,14.01
2023-11-13T20:52:51.626Z,14.05
2023-11-13T20:55:18.192Z,14.16
2023-11-13T20:57:44.922Z,14.27
2023-11-13T21:00:11.552Z,14.12
2023-11-13T21:02:41.095Z,14.39
2023-11-13T21:05:07.938Z,14.21
2023-11-13T21:07:34.631Z,14.27
2023-11-13T21:10:01.266Z,14.09
2023-11-13T21:12:27.911Z,13.91
2023-11-13T21:14:54.684Z,13.93
2023-11-13T21:17:21.312Z,13.89
2023-11-13T21:19:47.924Z,14.25
2023-11-13T21:22:14.568Z,14.44
2023-11-13T21:24:41.393Z,14.56
2023-11-13T21:27:08.067Z,14.18
2023-11-13T21:29:34.629Z,14.30
2023-11-13T21:32:01.273Z,14.39
2023-11-13T21:34:28.022Z,14.12
2023-11-13T21:36:54.664Z,14.19
2023-11-13T21:39:21.259Z,14.20
2023-11-13T21:41:50.490Z,14.53
2023-11-13T21:44:17.184Z,14.06
2023-11-13T21:46:43.816Z,14.38
2023-11-13T21:49:10.446Z,14.39
2023-11-13T21:51:37.060Z,14.61
2023-11-13T21:54:03.706Z,14.71
2023-11-13T21:56:30.292Z,14.59
2023-11-13T21:58:56.890Z,14.13
2023-11-13T22:01:23.725Z,14.23
2023-11-13T22:03:50.547Z,13.48
2023-11-13T22:06:17.157Z,13.92
2023-11-13T22:08:43.733Z,14.20
2023-11-13T22:11:10.330Z,14.01
2023-11-13T22:13:36.909Z,13.94
2023-11-13T22:16:03.603Z,14.25
2023-11-13T22:18:30.181Z,14.44
2023-11-13T22:20:56.757Z,14.55
2023-11-13T22:23:23.415Z,14.39
2023-11-13T22:25:51.546Z,14.74
2023-11-13T22:28:18.203Z,14.65
2023-11-13T22:30:44.778Z,14.89
2023-11-13T22:33:11.425Z,14.79
2023-11-13T22:35:38.121Z,15.02
2023-11-13T22:38:04.750Z,14.73
2023-11-13T22:40:31.421Z,14.56
2023-11-13T22:42:58.037Z,14.72
2023-11-13T22:45:24.723Z,14.82
2023-11-13T22:47:51.355Z,14.67
2023-11-13T22:50:18.033Z,14.53
2023-11-13T22:52:44.836Z,14.71
2023-11-13T22:55:11.453Z,14.11
2023-11-13T22:57:38.118Z,14.45
2023-11-13T23:00:04.719Z,14.59
2023-11-13T23:02:31.307Z,14.41
2023-11-13T23:04:58.015Z,14.48
2023-11-13T23:07:24.649Z,14.23
2023-11-13T23:09:51.248Z,14.20
2023-11-13T23:12:17.885Z,14.16
2023-11-13T23:14:44.497Z,14.40
2023-11-13T23:17:12.408Z,14.26
2023-11-13T23:19:39.284Z,14.53
2023-11-13T23:22:05.973Z,14.64
2023-11-13T23:24:32.988Z,14.68
2023-11-13T23:26:59.989Z,14.51
2023-11-13T23:29:26.592Z,14.83
2023-11-13T23:31:53.266Z,14.48
2023-11-13T23:34:19.920Z,14.62
2023-11-13T23:36:46.685Z,14.50
2023-11-13T23:39:13.286Z,14.68
2023-11-13T23:41:39.895Z,14.23
2023-11-13T23:44:06.492Z,13.99
2023-11-13T23:46:33.331Z,14.31
2023-11-13T23:48:59.966Z,14.47
2023-11-13T23:51:26.568Z,14.44
2023-11-13T23:53:53.152Z,14.52
2023-11-13T23:56:19.784Z,14.22
2023-11-13T23:58:46.429Z,13.99
